This is the latest recevied weather packets stored in our database for station/object KO6MEX-13. If no packets are shown the sender has not sent any weather packets the latest 1 day(s).
| Time | Temp. | Humidity | Pressure | Rain* | Wind** | Luminosity | Snow |
|---|---|---|---|---|---|---|---|
| 1778084505 | 18.33° C | 65% | 1022.2 hPa | 0 mm | - | 537 W/m² | - |
| 1778084202 | 18.33° C | 64% | 1022 hPa | 0 mm | - | 479 W/m² | - |
| 1778083293 | 18.33° C | 65% | 1022.4 hPa | 0 mm | - | 379 W/m² | - |
| 1778082688 | 17.78° C | 67% | 1022.2 hPa | 0 mm | - | 309 W/m² | - |
| 1778080939 | 16.11° C | 73% | 1022.5 hPa | 0 mm | - | 246 W/m² | - |
| 1778080334 | 16.11° C | 72% | 1022.4 hPa | 0 mm | - | 226 W/m² | - |
| 1778079121 | 15° C | 73% | 1022.6 hPa | 0 mm | - | 88 W/m² | - |
| 1778078819 | 15° C | 74% | 1022.4 hPa | 0 mm | - | 90 W/m² | - |
| 1778077609 | 13.33° C | 81% | 1022.4 hPa | 0 mm | - | 62 W/m² | - |
| 1778077004 | 13.33° C | 79% | 1022.2 hPa | 0 mm | - | 50 W/m² | - |
| 1778074882 | 10.56° C | 89% | 1022.1 hPa | 0 mm | - | 23 W/m² | - |
| 1778073974 | 9.44° C | 94% | 1022.1 hPa | 0 mm | - | 11 W/m² | - |
| 1778073368 | 8.89° C | 92% | 1021.9 hPa | 0 mm | - | 4 W/m² | - |
| 1778073064 | 9.44° C | 92% | 1021.8 hPa | 0 mm | - | 3 W/m² | - |
| 1778072459 | 9.44° C | 93% | 1021.6 hPa | 0 mm | - | 0 W/m² | - |
| 1778071552 | 9.44° C | 94% | 1021.5 hPa | 0 mm | - | 0 W/m² | - |
| 1778070040 | 9.44° C | 94% | 1021.4 hPa | 0 mm | - | 0 W/m² | - |
| 1778069737 | 9.44° C | 93% | 1021.5 hPa | 0 mm | - | 0 W/m² | - |
| 1778069433 | 9.44° C | 93% | 1021.6 hPa | 0 mm | - | 0 W/m² | - |
| 1778068526 | 9.44° C | 93% | 1021.6 hPa | 0 mm | - | 0 W/m² | - |
| 1778067620 | 9.44° C | 94% | 1021.7 hPa | 0 mm | - | 0 W/m² | - |
| 1778066711 | 9.44° C | 95% | 1021.7 hPa | 0 mm | - | 0 W/m² | - |
| 1778065501 | 8.89° C | 95% | 1021.6 hPa | 0 mm | - | 0 W/m² | - |
| 1778063684 | 9.44° C | 94% | 1021.5 hPa | 0 mm | - | 0 W/m² | - |
| 1778063079 | 10° C | 93% | 1021.5 hPa | 0 mm | - | 0 W/m² | - |
* Rain latest hour (hover to see other rain measurements)
** Current wind speed in m/s (hover to see current wind gust speed)